Wetterstation Vordersexau
Wetterdaten: Oktober 2018
Datum Temp. A. Feuchte A. Luftdruck Regen Wind Richtung Taupunkt Windchill Windben
01.10.2018 11,5 C 76 % 1015,6 hPa 1,0 l/m 0,0 km/h N-NO 7,3 C 11,5 C 0,0 km/h
02.10.2018 9,5 C 72 % 1021,7 hPa 0,0 l/m 0,0 km/h S-SW 4,5 C 9,5 C 0,0 km/h
03.10.2018 12,9 C 75 % 1023,7 hPa 0,5 l/m 0,0 km/h SO 8,5 C 12,9 C 0,0 km/h
04.10.2018 12,1 C 77 % 1022,9 hPa 0,0 l/m 0,0 km/h SO 8,0 C 12,1 C 0,0 km/h
05.10.2018 13,9 C 72 % 1017,1 hPa 0,0 l/m 0,0 km/h NO 8,6 C 13,9 C 0,0 km/h
06.10.2018 16,1 C 70 % 1010,0 hPa 0,0 l/m 0,0 km/h O-NO 10,1 C 16,1 C 0,0 km/h
07.10.2018 16,0 C 73 % 1011,5 hPa 0,0 l/m 0,0 km/h O-SO 10,9 C 16,0 C 0,0 km/h
08.10.2018 11,4 C 81 % 1017,3 hPa 0,0 l/m 0,0 km/h W-SW 8,3 C 11,4 C 0,0 km/h
09.10.2018 13,5 C 75 % 1018,2 hPa 0,0 l/m 0,0 km/h NW 9,0 C 13,5 C 0,0 km/h
10.10.2018 12,5 C 78 % 1013,8 hPa 0,0 l/m 0,0 km/h N 8,8 C 12,5 C 0,0 km/h
11.10.2018 12,5 C 78 % 1012,3 hPa 0,0 l/m 0,0 km/h N-NO 8,8 C 12,5 C 0,0 km/h
12.10.2018 17,2 C 71 % 1018,9 hPa 0,0 l/m 0,0 km/h O-NO 11,4 C 17,2 C 0,0 km/h
13.10.2018 16,4 C 73 % 1017,6 hPa 0,0 l/m 0,0 km/h O 11,2 C 16,4 C 0,0 km/h
14.10.2018 16,0 C 70 % 1010,2 hPa 0,0 l/m 0,0 km/h O-NO 10,4 C 16,0 C 0,0 km/h
15.10.2018 15,1 C 65 % 1010,7 hPa 0,0 l/m 0,0 km/h O-NO 8,3 C 15,1 C 0,0 km/h
16.10.2018 13,3 C 71 % 1015,2 hPa 0,0 l/m 0,0 km/h O-NO 7,8 C 13,3 C 0,0 km/h
17.10.2018 13,1 C 74 % 1015,4 hPa 0,0 l/m 0,0 km/h O-NO 8,2 C 13,1 C 0,0 km/h
18.10.2018 12,9 C 76 % 1015,8 hPa 0,0 l/m 0,0 km/h O-NO 8,5 C 12,9 C 0,0 km/h
19.10.2018 10,4 C 81 % 1018,7 hPa 0,0 l/m 0,0 km/h O 7,2 C 10,4 C 0,0 km/h
20.10.2018 9,2 C 77 % 1024,4 hPa 0,0 l/m 0,0 km/h O 5,4 C 9,2 C 0,0 km/h
21.10.2018 7,6 C 75 % 1023,6 hPa 0,0 l/m 0,0 km/h O 3,5 C 7,6 C 0,0 km/h
22.10.2018 8,3 C 71 % 1024,2 hPa 0,0 l/m 0,0 km/h O-NO 3,1 C 8,3 C 0,0 km/h
23.10.2018 9,0 C 75 % 1026,2 hPa 0,0 l/m 0,0 km/h W-SW 4,6 C 9,0 C 0,0 km/h
24.10.2018 11,1 C 76 % 1023,7 hPa 0,0 l/m 0,0 km/h NW 7,0 C 11,1 C 0,0 km/h
25.10.2018 11,9 C 78 % 1018,3 hPa 0,0 l/m 0,0 km/h O 8,2 C 11,9 C 0,0 km/h
26.10.2018 10,5 C 75 % 1009,5 hPa 0,0 l/m 2,4 km/h W-SW 6,2 C 10,0 C 1,3 km/h
27.10.2018 6,3 C 83 % 1005,7 hPa 9,3 l/m 0,6 km/h N-NO 3,7 C 6,2 C 0,3 km/h
28.10.2018 4,6 C 82 % 1002,5 hPa 2,1 l/m 2,3 km/h N-NO 1,8 C 4,2 C 1,3 km/h
29.10.2018 5,2 C 82 % 992,8 hPa 4,7 l/m 1,9 km/h N-NO 2,3 C 4,5 C 1,0 km/h
30.10.2018 6,0 C 77 % 997,6 hPa 1,6 l/m 22,2 km/h S 2,3 C -2,0 C 12,3 km/h
31.10.2018 4,7 C 83 % 1010,3 hPa 0,0 l/m 0,0 km/h S-SW 2,1 C 4,7 C 0,0 km/h
Min-Datum 22.10.18 15.10.18 29.10.18 6 Tage 01.10.18 - 22.10.18 30.10.18 01.10.18
Min-Zeit 07:53 15:53 22:53 - 00:53 - 07:53 05:53 00:53
Minimum 0,4 C 43 % 980,0 hPa - 0,0 km/h - -1,8 C -8,3 C 0,0 km/h
Max-Datum 12.10.18 22.10.18 23.10.18 27.10.18 30.10.18 - 12.10.18 12.10.18 30.10.18
Max-Zeit 15:53 00:53 00:53 06:53 11:53 - 12:53 15:53 11:53
Maximum 26,4 C 85 % 1028,4 hPa 9,3 l/m 41,5 km/h
S
- 15,7 C 26,4 C 23,0 km/h
S
Durchschnitt 11,3 C 75 % 1015,0 hPa #19,2 l/m 0,9 km/h O-NO 7,0 C 11,0 C 0,5 km/h

Durchschnitt Minimum Temp.6,9 C
Durchschnitt Maximum Temp.17,3 C
www.sexauwetter.de